createdAt,value
2022-10-25T00:00:43.965Z,18.40
2022-10-25T00:01:44.130Z,18.20
2022-10-25T00:02:44.003Z,18.90
2022-10-25T00:03:43.901Z,18.40
2022-10-25T00:04:43.920Z,16.90
2022-10-25T00:05:43.896Z,18.20
2022-10-25T00:06:43.867Z,19.40
2022-10-25T00:07:43.985Z,20.10
2022-10-25T00:08:43.833Z,20.50
2022-10-25T00:09:43.812Z,18.20
2022-10-25T00:10:43.916Z,19.90
2022-10-25T00:11:43.804Z,19.70
2022-10-25T00:12:43.783Z,23.40
2022-10-25T00:13:43.766Z,28.20
2022-10-25T00:14:43.766Z,19.20
2022-10-25T00:15:43.733Z,18.40
2022-10-25T00:16:43.871Z,20.40
2022-10-25T00:17:43.882Z,18.10
2022-10-25T00:18:43.694Z,19.30
2022-10-25T00:19:43.686Z,21.20
2022-10-25T00:20:43.691Z,23.60
2022-10-25T00:21:43.645Z,20.80
2022-10-25T00:22:43.937Z,18.80
2022-10-25T00:23:43.649Z,20.50
2022-10-25T00:24:43.617Z,20.10
2022-10-25T00:25:43.620Z,23.70
2022-10-25T00:26:43.600Z,19.00
2022-10-25T00:27:43.580Z,19.40
2022-10-25T00:28:43.685Z,22.00
2022-10-25T00:29:43.556Z,22.20
2022-10-25T00:30:43.540Z,19.70
2022-10-25T00:31:43.541Z,22.60
2022-10-25T00:32:43.602Z,18.00
2022-10-25T00:33:43.504Z,18.10
2022-10-25T00:34:43.613Z,19.90
2022-10-25T00:35:43.469Z,20.80
2022-10-25T00:36:43.474Z,18.80
2022-10-25T00:38:43.424Z,19.50
2022-10-25T00:39:43.421Z,20.30
2022-10-25T00:40:43.526Z,19.40
2022-10-25T00:41:43.392Z,17.90
2022-10-25T00:42:43.516Z,17.40
2022-10-25T00:43:43.377Z,20.10
2022-10-25T00:44:43.343Z,19.80
2022-10-25T00:45:43.364Z,17.40
2022-10-25T00:46:43.370Z,17.40
2022-10-25T00:47:43.314Z,18.10
2022-10-25T00:48:43.297Z,18.00
2022-10-25T00:49:43.274Z,17.90
2022-10-25T00:50:43.285Z,19.10
2022-10-25T00:51:43.276Z,16.60
2022-10-25T00:52:43.281Z,17.80
2022-10-25T00:53:43.236Z,18.60
2022-10-25T00:54:43.206Z,19.00
2022-10-25T00:55:43.228Z,16.90
2022-10-25T00:56:43.196Z,17.40
2022-10-25T00:57:43.487Z,17.10
2022-10-25T00:58:43.298Z,17.60
2022-10-25T00:59:43.149Z,17.10
2022-10-25T01:00:43.155Z,17.00
2022-10-25T01:01:43.201Z,16.80
2022-10-25T01:02:43.267Z,19.70
2022-10-25T01:03:43.114Z,20.00
2022-10-25T01:04:43.098Z,22.20
2022-10-25T01:05:43.080Z,17.90
2022-10-25T01:06:43.057Z,17.10
2022-10-25T01:07:43.058Z,18.00
2022-10-25T01:08:43.019Z,19.20
2022-10-25T01:09:43.023Z,17.60
2022-10-25T01:10:43.053Z,16.70
2022-10-25T01:11:42.993Z,18.20
2022-10-25T01:12:42.974Z,19.20
2022-10-25T01:13:42.963Z,21.40
2022-10-25T01:14:42.934Z,19.50
2022-10-25T01:15:42.956Z,18.90
2022-10-25T01:16:43.040Z,18.00
2022-10-25T01:17:42.916Z,22.20
2022-10-25T01:18:42.907Z,16.80
2022-10-25T01:19:42.874Z,17.60
2022-10-25T01:20:42.867Z,22.60
2022-10-25T01:21:42.865Z,18.90
2022-10-25T01:22:42.987Z,17.70
2022-10-25T01:23:42.845Z,17.30
2022-10-25T01:24:42.805Z,23.10
2022-10-25T01:25:42.831Z,18.80
2022-10-25T01:26:42.799Z,18.30
2022-10-25T01:27:42.852Z,19.70
2022-10-25T01:28:42.807Z,16.90
2022-10-25T01:29:42.760Z,17.20
2022-10-25T01:30:42.724Z,17.50
2022-10-25T01:31:42.740Z,16.80
2022-10-25T01:32:42.715Z,17.00
2022-10-25T01:33:42.711Z,17.30
2022-10-25T01:34:42.720Z,16.70
2022-10-25T01:35:42.678Z,17.90
2022-10-25T01:36:42.663Z,17.40
2022-10-25T01:37:42.649Z,16.40
2022-10-25T01:38:42.631Z,17.60
2022-10-25T01:39:42.642Z,18.50
2022-10-25T01:40:42.742Z,16.00
2022-10-25T01:41:42.599Z,16.10
2022-10-25T01:42:42.571Z,15.80
2022-10-25T01:43:42.569Z,15.70
2022-10-25T01:44:42.545Z,18.20
2022-10-25T01:45:42.558Z,18.70
2022-10-25T01:46:42.636Z,16.70
2022-10-25T01:47:42.502Z,18.30
2022-10-25T01:48:42.507Z,18.60
2022-10-25T01:49:42.492Z,16.70
2022-10-25T01:50:42.463Z,17.20
2022-10-25T01:51:42.469Z,17.20
2022-10-25T01:52:42.615Z,18.40
2022-10-25T01:53:42.448Z,18.00
2022-10-25T01:54:42.426Z,18.20
2022-10-25T01:55:42.407Z,17.60
2022-10-25T01:56:42.384Z,17.50
2022-10-25T01:57:42.390Z,16.10
2022-10-25T01:58:42.508Z,16.50
2022-10-25T01:59:42.355Z,24.90
2022-10-25T02:00:42.412Z,18.40
2022-10-25T02:01:42.475Z,25.40
2022-10-25T02:02:42.296Z,20.70
2022-10-25T02:03:42.321Z,17.90
2022-10-25T02:04:42.310Z,17.30
2022-10-25T02:05:42.294Z,18.40
2022-10-25T02:06:42.270Z,21.00
2022-10-25T02:07:42.249Z,17.90
2022-10-25T02:08:42.244Z,19.30
2022-10-25T02:09:42.224Z,22.10
2022-10-25T02:10:42.230Z,22.00
2022-10-25T02:11:42.209Z,21.30
2022-10-25T02:12:42.184Z,21.80
2022-10-25T02:13:42.168Z,24.60
2022-10-25T02:14:42.160Z,21.30
2022-10-25T02:15:42.157Z,19.20
2022-10-25T02:16:42.253Z,22.80
2022-10-25T02:17:42.136Z,23.00
2022-10-25T02:18:42.160Z,21.30
2022-10-25T02:19:42.084Z,20.50
2022-10-25T02:20:44.488Z,23.90
2022-10-25T02:21:42.071Z,20.80
2022-10-25T02:22:42.144Z,21.40
2022-10-25T02:23:42.046Z,19.20
2022-10-25T02:24:42.021Z,19.10
2022-10-25T02:25:42.017Z,19.80
2022-10-25T02:26:42.046Z,21.60
2022-10-25T02:27:41.983Z,25.20
2022-10-25T02:28:42.100Z,20.30
2022-10-25T02:29:41.946Z,21.20
2022-10-25T02:30:41.936Z,18.50
2022-10-25T02:31:41.939Z,18.70
2022-10-25T02:32:41.906Z,19.30
2022-10-25T02:33:41.917Z,18.90
2022-10-25T02:34:42.023Z,18.30
2022-10-25T02:35:41.877Z,18.70
2022-10-25T02:36:41.871Z,21.30
2022-10-25T02:37:41.845Z,21.00
2022-10-25T02:38:41.842Z,20.50
2022-10-25T02:39:41.845Z,20.20
2022-10-25T02:40:41.918Z,19.70
2022-10-25T02:41:41.813Z,20.20
2022-10-25T02:42:41.791Z,21.80
2022-10-25T02:43:41.776Z,19.90
2022-10-25T02:44:41.762Z,18.60
2022-10-25T02:45:41.756Z,21.60
2022-10-25T02:46:41.773Z,20.70
2022-10-25T02:47:41.712Z,23.20
2022-10-25T02:48:41.724Z,23.70
2022-10-25T02:49:41.691Z,28.30
2022-10-25T02:50:41.673Z,23.00
2022-10-25T02:51:41.748Z,28.10
2022-10-25T02:52:41.683Z,27.40
2022-10-25T02:53:41.645Z,22.40
2022-10-25T02:54:41.627Z,23.70
2022-10-25T02:55:41.613Z,22.30
2022-10-25T02:56:41.606Z,23.50
2022-10-25T02:57:41.575Z,22.00
2022-10-25T02:58:41.599Z,26.20
2022-10-25T02:59:41.568Z,23.40
2022-10-25T03:00:41.596Z,24.40
2022-10-25T03:01:41.600Z,28.30
2022-10-25T03:02:41.510Z,26.90
2022-10-25T03:03:41.510Z,24.50
2022-10-25T03:04:41.597Z,25.80
2022-10-25T03:05:41.493Z,28.30
2022-10-25T03:06:41.470Z,25.90
2022-10-25T03:07:41.448Z,26.80
2022-10-25T03:08:41.452Z,26.90
2022-10-25T03:09:41.428Z,27.20
2022-10-25T03:10:41.528Z,24.80
2022-10-25T03:11:41.415Z,24.20
2022-10-25T03:12:41.379Z,26.10
2022-10-25T03:13:41.399Z,26.90
2022-10-25T03:14:41.365Z,23.60
2022-10-25T03:15:41.350Z,27.30
2022-10-25T03:16:41.400Z,28.30
2022-10-25T03:17:41.327Z,25.10
2022-10-25T03:18:41.314Z,27.20
2022-10-25T03:19:41.291Z,22.90
2022-10-25T03:20:41.285Z,23.10
2022-10-25T03:21:41.997Z,25.80
2022-10-25T03:22:41.371Z,24.10
2022-10-25T03:23:41.265Z,24.20
2022-10-25T03:24:41.224Z,25.40
2022-10-25T03:25:41.217Z,22.10
2022-10-25T03:26:41.224Z,22.90
2022-10-25T03:27:41.187Z,25.20
2022-10-25T03:28:41.218Z,23.50
2022-10-25T03:29:41.154Z,25.00
2022-10-25T03:30:41.126Z,25.70
2022-10-25T03:31:41.155Z,24.40
2022-10-25T03:32:41.107Z,23.90
2022-10-25T03:33:41.119Z,24.00
2022-10-25T03:34:41.140Z,23.90
2022-10-25T03:35:41.076Z,21.00
2022-10-25T03:36:41.081Z,22.10
2022-10-25T03:37:41.166Z,22.10
2022-10-25T03:38:41.036Z,21.50
2022-10-25T03:39:41.031Z,20.80
2022-10-25T03:40:41.119Z,23.40
2022-10-25T03:41:41.020Z,21.60
2022-10-25T03:42:41.002Z,23.70
2022-10-25T03:43:40.983Z,23.40
2022-10-25T03:44:40.964Z,23.40
2022-10-25T03:45:40.940Z,21.70
2022-10-25T03:46:41.046Z,21.90
2022-10-25T03:47:40.932Z,24.90
2022-10-25T03:48:40.911Z,22.60
2022-10-25T03:49:40.891Z,24.40
2022-10-25T03:50:40.881Z,21.10
2022-10-25T03:51:40.885Z,23.10
2022-10-25T03:52:40.971Z,22.00
2022-10-25T03:53:40.855Z,24.60
2022-10-25T03:54:40.842Z,22.00
2022-10-25T03:55:40.803Z,22.70
2022-10-25T03:56:40.808Z,22.00
2022-10-25T03:57:40.779Z,20.80
2022-10-25T03:58:40.864Z,23.30
2022-10-25T03:59:40.780Z,22.50
2022-10-25T04:00:40.815Z,23.90
2022-10-25T04:01:40.849Z,22.50
2022-10-25T04:02:40.729Z,24.20
2022-10-25T04:03:40.705Z,24.40
2022-10-25T04:04:40.846Z,22.60
2022-10-25T04:05:40.708Z,20.90
2022-10-25T04:06:40.672Z,24.10
2022-10-25T04:07:40.655Z,22.40
2022-10-25T04:08:40.643Z,24.00
2022-10-25T04:09:40.639Z,20.00
2022-10-25T04:10:40.639Z,21.60
2022-10-25T04:11:40.612Z,21.90
2022-10-25T04:12:40.607Z,20.70
2022-10-25T04:13:40.580Z,22.90
2022-10-25T04:14:40.559Z,23.00
2022-10-25T04:15:40.539Z,22.40
2022-10-25T04:16:40.653Z,23.60
2022-10-25T04:17:40.510Z,21.80
2022-10-25T04:18:40.515Z,19.70
2022-10-25T04:19:40.508Z,23.10
2022-10-25T04:20:40.481Z,22.50
2022-10-25T04:21:40.473Z,21.50
2022-10-25T04:22:40.496Z,22.40
2022-10-25T04:23:40.422Z,22.10
2022-10-25T04:24:40.454Z,22.20
2022-10-25T04:25:40.407Z,23.10
2022-10-25T04:26:40.417Z,20.20
2022-10-25T04:27:40.399Z,19.60
2022-10-25T04:28:40.464Z,19.60
2022-10-25T04:29:40.346Z,22.60
2022-10-25T04:30:40.365Z,21.90
2022-10-25T04:31:40.341Z,21.20
2022-10-25T04:32:40.317Z,22.70
2022-10-25T04:33:41.535Z,22.90
2022-10-25T04:34:40.398Z,21.20
2022-10-25T04:35:40.266Z,24.50
2022-10-25T04:36:40.282Z,20.40
2022-10-25T04:37:40.245Z,21.70
2022-10-25T04:38:40.241Z,25.10
2022-10-25T04:39:40.234Z,20.20
2022-10-25T04:40:40.316Z,20.80
2022-10-25T04:41:40.202Z,24.80
2022-10-25T04:42:40.189Z,22.80
2022-10-25T04:43:40.166Z,20.60
2022-10-25T04:44:40.165Z,21.70
2022-10-25T04:45:40.160Z,23.80
2022-10-25T04:46:40.282Z,23.60
2022-10-25T04:47:40.109Z,24.00
2022-10-25T04:48:40.115Z,22.80
2022-10-25T04:49:40.095Z,22.70
2022-10-25T04:50:40.095Z,23.50
2022-10-25T04:51:40.128Z,26.50
2022-10-25T04:52:40.172Z,22.50
2022-10-25T04:53:40.056Z,26.80
2022-10-25T04:54:40.015Z,26.10
2022-10-25T04:55:40.003Z,22.60
2022-10-25T04:56:40.237Z,25.50
2022-10-25T04:57:39.973Z,29.60
2022-10-25T04:58:40.087Z,24.90
2022-10-25T04:59:39.967Z,26.40
2022-10-25T05:00:39.945Z,23.00
2022-10-25T05:01:40.044Z,23.20
2022-10-25T05:02:39.998Z,23.60
2022-10-25T05:03:39.904Z,22.50
2022-10-25T05:04:39.929Z,22.40
2022-10-25T05:05:39.875Z,20.50
2022-10-25T05:06:39.881Z,25.60
2022-10-25T05:07:39.855Z,22.30
2022-10-25T05:08:39.828Z,22.80
2022-10-25T05:09:41.717Z,23.20
2022-10-25T05:10:40.917Z,21.60
2022-10-25T05:11:39.828Z,21.60
2022-10-25T05:12:39.802Z,22.50
2022-10-25T05:13:39.749Z,21.80
2022-10-25T05:14:39.771Z,19.30
2022-10-25T05:15:39.751Z,22.20
2022-10-25T05:16:39.838Z,21.60
2022-10-25T05:17:39.700Z,24.80
2022-10-25T05:18:39.723Z,21.90
2022-10-25T05:19:39.701Z,21.90
2022-10-25T05:20:39.675Z,21.50
2022-10-25T05:21:39.674Z,22.40
2022-10-25T05:22:39.759Z,24.10
2022-10-25T05:23:39.633Z,22.40
2022-10-25T05:24:39.634Z,24.00
2022-10-25T05:25:39.593Z,24.20
2022-10-25T05:26:39.605Z,21.80
2022-10-25T05:27:39.596Z,22.40
2022-10-25T05:28:39.683Z,23.00
2022-10-25T05:29:39.560Z,21.80
2022-10-25T05:30:39.545Z,25.20
2022-10-25T05:31:39.571Z,21.60
2022-10-25T05:32:39.535Z,22.00
2022-10-25T05:33:39.509Z,23.80
2022-10-25T05:34:39.597Z,22.90
2022-10-25T05:35:39.474Z,23.70
2022-10-25T05:36:39.469Z,24.10
2022-10-25T05:37:39.433Z,21.80
2022-10-25T05:38:39.443Z,21.30
2022-10-25T05:39:39.410Z,22.00
2022-10-25T05:40:39.508Z,21.60
2022-10-25T05:41:39.400Z,23.20
2022-10-25T05:42:39.380Z,23.10
2022-10-25T05:43:39.357Z,22.20
2022-10-25T05:44:39.365Z,20.40
2022-10-25T05:45:39.319Z,22.40
2022-10-25T05:46:39.374Z,21.20
2022-10-25T05:47:39.314Z,22.70
2022-10-25T05:48:39.289Z,21.90
2022-10-25T05:49:39.291Z,19.80
2022-10-25T05:50:39.330Z,25.30
2022-10-25T05:51:39.306Z,20.90
2022-10-25T05:52:39.262Z,22.10
2022-10-25T05:53:39.239Z,25.20
2022-10-25T05:54:39.221Z,21.80
2022-10-25T05:55:39.201Z,20.70
2022-10-25T05:56:39.215Z,21.60
2022-10-25T05:57:39.174Z,22.00
2022-10-25T05:58:39.203Z,19.00
2022-10-25T05:59:39.166Z,21.80
2022-10-25T06:00:39.139Z,20.80
2022-10-25T06:01:39.342Z,24.10
2022-10-25T06:02:39.110Z,19.60
2022-10-25T06:03:39.084Z,23.10
2022-10-25T06:04:39.207Z,20.70
2022-10-25T06:05:39.065Z,21.70
2022-10-25T06:06:39.065Z,18.70
2022-10-25T06:07:39.074Z,21.10
2022-10-25T06:08:39.050Z,20.00
2022-10-25T06:09:39.030Z,22.00
2022-10-25T06:10:39.037Z,21.90
2022-10-25T06:11:39.002Z,23.10
2022-10-25T06:12:39.098Z,20.60
2022-10-25T06:13:49.689Z,22.90
2022-10-25T06:15:06.882Z,23.20
2022-10-25T06:15:38.940Z,23.30
2022-10-25T06:16:39.056Z,22.50
2022-10-25T06:17:38.899Z,22.70
2022-10-25T06:18:38.881Z,22.50
2022-10-25T06:19:38.884Z,23.20
2022-10-25T06:20:38.902Z,23.30
2022-10-25T06:21:38.879Z,23.30
2022-10-25T06:22:38.885Z,20.30
2022-10-25T06:23:38.835Z,23.10
2022-10-25T06:24:38.811Z,22.60
2022-10-25T06:25:38.815Z,19.90
2022-10-25T06:26:38.795Z,22.10
2022-10-25T06:27:38.773Z,23.10
2022-10-25T06:28:38.805Z,21.40
2022-10-25T06:29:38.743Z,21.80
2022-10-25T06:30:38.732Z,25.40
2022-10-25T06:31:38.727Z,22.80
2022-10-25T06:32:38.703Z,21.40
2022-10-25T06:33:38.708Z,21.90
2022-10-25T06:34:38.731Z,20.40
2022-10-25T06:35:38.666Z,19.50
2022-10-25T06:36:38.645Z,21.30
2022-10-25T06:37:38.656Z,22.30
2022-10-25T06:38:38.643Z,20.60
2022-10-25T06:39:38.608Z,24.10
2022-10-25T06:40:38.638Z,21.40
2022-10-25T06:41:38.590Z,19.20
2022-10-25T06:42:38.567Z,22.10
2022-10-25T06:43:38.583Z,23.10
2022-10-25T06:44:38.543Z,22.40
2022-10-25T06:45:38.542Z,21.50
2022-10-25T06:47:04.443Z,20.20
2022-10-25T06:47:39.515Z,22.30
2022-10-25T06:48:38.864Z,20.60
2022-10-25T06:49:38.480Z,22.10
2022-10-25T06:50:38.470Z,26.30
2022-10-25T06:51:38.474Z,19.00
2022-10-25T06:52:38.594Z,21.60
2022-10-25T06:53:38.440Z,18.20
2022-10-25T06:54:38.412Z,22.10
2022-10-25T06:55:38.413Z,22.50
2022-10-25T06:56:38.381Z,25.00
2022-10-25T06:57:38.386Z,25.80
2022-10-25T06:58:38.484Z,20.90
2022-10-25T06:59:38.364Z,22.30
2022-10-25T07:00:38.364Z,22.00
2022-10-25T07:01:38.379Z,22.40
2022-10-25T07:02:38.314Z,21.40
2022-10-25T07:03:38.306Z,23.70
2022-10-25T07:04:38.326Z,20.00
2022-10-25T07:05:38.287Z,22.70
2022-10-25T07:06:38.259Z,25.90
2022-10-25T07:07:38.236Z,22.20
2022-10-25T07:08:38.234Z,19.10
2022-10-25T07:09:38.239Z,22.30
2022-10-25T07:10:38.330Z,19.90
2022-10-25T07:11:38.176Z,23.50
2022-10-25T07:12:38.189Z,22.60
2022-10-25T07:13:38.183Z,20.20
2022-10-25T07:14:38.148Z,21.60
2022-10-25T07:15:41.319Z,21.90
2022-10-25T07:16:38.149Z,17.50
2022-10-25T07:17:38.113Z,18.80
2022-10-25T07:18:38.121Z,21.20
2022-10-25T07:19:38.081Z,20.10
2022-10-25T07:20:38.073Z,21.40
2022-10-25T07:21:38.039Z,17.00
2022-10-25T07:22:38.191Z,23.10
2022-10-25T07:23:38.030Z,19.50
2022-10-25T07:24:38.014Z,18.50
2022-10-25T07:25:38.014Z,18.20
2022-10-25T07:26:38.003Z,16.50
2022-10-25T07:27:37.968Z,20.40
2022-10-25T07:28:37.998Z,21.30
2022-10-25T07:29:37.952Z,18.00
2022-10-25T07:30:37.957Z,19.40
2022-10-25T07:31:37.923Z,18.00
2022-10-25T07:32:41.568Z,18.50
2022-10-25T07:33:37.894Z,24.30
2022-10-25T07:34:37.981Z,23.00
2022-10-25T07:35:46.729Z,18.10
2022-10-25T07:36:38.845Z,18.00
2022-10-25T07:37:37.850Z,18.10
2022-10-25T07:38:37.832Z,19.10
2022-10-25T07:39:37.835Z,21.00
2022-10-25T07:40:37.925Z,19.10
2022-10-25T07:41:37.787Z,19.80
2022-10-25T07:42:37.768Z,21.30
2022-10-25T07:43:37.741Z,19.10
2022-10-25T07:44:37.776Z,14.80
2022-10-25T07:45:37.710Z,15.30
2022-10-25T07:46:37.725Z,17.70
2022-10-25T07:47:37.692Z,15.10
2022-10-25T07:48:37.678Z,15.00
2022-10-25T07:49:37.671Z,14.30
2022-10-25T07:50:37.662Z,14.80
2022-10-25T07:51:37.639Z,16.20
2022-10-25T07:52:37.744Z,14.40
2022-10-25T07:53:37.600Z,16.40
2022-10-25T07:54:37.645Z,13.00
2022-10-25T07:55:37.584Z,11.90
2022-10-25T07:56:37.575Z,12.60
2022-10-25T07:57:37.561Z,13.80
2022-10-25T07:58:37.652Z,13.20
2022-10-25T07:59:37.537Z,14.80
2022-10-25T08:00:37.513Z,14.60
2022-10-25T08:01:37.549Z,15.00
2022-10-25T08:02:37.531Z,18.40
2022-10-25T08:03:37.462Z,14.10
2022-10-25T08:04:37.757Z,14.20
2022-10-25T08:05:37.434Z,13.40
2022-10-25T08:06:37.423Z,14.40
2022-10-25T08:07:37.425Z,12.70
2022-10-25T08:08:37.405Z,13.60
2022-10-25T08:09:38.642Z,12.30
2022-10-25T08:10:37.417Z,11.60
2022-10-25T08:11:37.355Z,13.70
2022-10-25T08:12:37.361Z,13.20
2022-10-25T08:13:37.346Z,12.80
2022-10-25T08:14:40.733Z,13.60
2022-10-25T08:15:38.470Z,12.40
2022-10-25T08:16:37.301Z,11.70
2022-10-25T08:17:37.297Z,11.10
2022-10-25T08:18:37.300Z,12.00
2022-10-25T08:19:37.248Z,12.30
2022-10-25T08:21:00.543Z,11.90
2022-10-25T08:21:38.330Z,11.90
2022-10-25T08:22:37.213Z,12.30
2022-10-25T08:23:37.207Z,11.70
2022-10-25T08:24:37.190Z,11.40
2022-10-25T08:25:37.184Z,11.20
2022-10-25T08:26:37.303Z,12.00
2022-10-25T08:27:37.254Z,11.60
2022-10-25T08:28:37.141Z,11.70
2022-10-25T08:29:37.149Z,11.00
2022-10-25T08:30:37.124Z,11.60
2022-10-25T08:31:37.101Z,12.20
2022-10-25T08:32:37.095Z,10.90
2022-10-25T08:33:37.194Z,10.60
2022-10-25T08:34:37.053Z,11.20
2022-10-25T08:35:37.048Z,11.40
2022-10-25T08:36:37.025Z,12.00
2022-10-25T08:37:37.018Z,10.70
2022-10-25T08:38:37.018Z,12.90
2022-10-25T08:39:37.115Z,13.20
2022-10-25T08:40:36.989Z,12.70
2022-10-25T08:41:36.956Z,12.80
2022-10-25T08:42:36.947Z,12.80
2022-10-25T08:43:36.939Z,11.30
2022-10-25T08:44:36.946Z,11.40
2022-10-25T08:45:36.937Z,12.40
2022-10-25T08:46:36.897Z,11.90
2022-10-25T08:47:36.892Z,15.30
2022-10-25T08:48:36.867Z,15.00
2022-10-25T08:49:36.862Z,14.20
2022-10-25T08:50:36.860Z,14.30
2022-10-25T08:51:36.949Z,13.30
2022-10-25T08:52:36.831Z,11.70
2022-10-25T08:53:36.800Z,11.20
2022-10-25T08:54:36.793Z,12.20
2022-10-25T08:55:41.595Z,13.00
2022-10-25T08:56:42.710Z,12.30
2022-10-25T08:57:37.755Z,12.30
2022-10-25T08:58:36.764Z,11.80
2022-10-25T08:59:36.722Z,11.50
2022-10-25T09:00:36.713Z,10.50
2022-10-25T09:01:36.837Z,11.30
2022-10-25T09:02:36.828Z,12.80
2022-10-25T09:03:36.727Z,10.20
2022-10-25T09:04:36.676Z,10.50
2022-10-25T09:05:36.652Z,10.90
2022-10-25T09:06:36.633Z,11.30
2022-10-25T09:07:38.439Z,11.00
2022-10-25T09:08:36.737Z,11.60
2022-10-25T09:09:36.599Z,11.40
2022-10-25T09:10:36.590Z,11.80
2022-10-25T09:11:36.567Z,10.70
2022-10-25T09:12:36.560Z,12.20
2022-10-25T09:13:36.529Z,13.00
2022-10-25T09:14:36.647Z,13.50
2022-10-25T09:15:39.090Z,13.10
2022-10-25T09:16:37.497Z,14.30
2022-10-25T09:17:36.498Z,14.50
2022-10-25T09:18:36.504Z,13.20
2022-10-25T09:19:36.448Z,13.10
2022-10-25T09:20:36.582Z,14.20
2022-10-25T09:21:36.420Z,13.90
2022-10-25T09:22:36.418Z,12.30
2022-10-25T09:23:36.415Z,12.40
2022-10-25T09:24:36.405Z,12.60
2022-10-25T09:25:36.386Z,11.50
2022-10-25T09:26:36.493Z,12.50
2022-10-25T09:27:36.342Z,11.80
2022-10-25T09:28:36.354Z,12.40
2022-10-25T09:29:36.326Z,13.60
2022-10-25T09:30:36.312Z,12.90
2022-10-25T09:31:36.308Z,14.10
2022-10-25T09:32:36.326Z,12.70
2022-10-25T09:33:36.266Z,13.20
2022-10-25T09:34:36.254Z,13.10
2022-10-25T09:35:36.266Z,12.10
2022-10-25T09:36:36.225Z,12.20
2022-10-25T09:37:36.238Z,11.50
2022-10-25T09:38:36.282Z,12.20
2022-10-25T09:39:36.185Z,12.10
2022-10-25T09:40:39.299Z,12.50
2022-10-25T09:41:37.158Z,13.40
2022-10-25T09:42:36.158Z,13.20
2022-10-25T09:43:36.141Z,15.10
2022-10-25T09:44:36.239Z,14.10
2022-10-25T09:45:38.564Z,15.40
2022-10-25T09:46:37.111Z,14.90
2022-10-25T09:47:36.078Z,15.00
2022-10-25T09:48:36.069Z,14.40
2022-10-25T09:49:37.720Z,14.90
2022-10-25T09:50:36.092Z,14.70
2022-10-25T09:51:36.023Z,14.50
2022-10-25T09:52:36.033Z,15.00
2022-10-25T09:53:36.001Z,15.20
2022-10-25T09:54:36.010Z,15.40
2022-10-25T09:55:36.015Z,15.10
2022-10-25T09:56:36.001Z,14.30
2022-10-25T09:57:35.957Z,14.80
2022-10-25T09:58:35.953Z,14.10
2022-10-25T09:59:35.925Z,14.40
2022-10-25T10:00:35.926Z,14.40
2022-10-25T10:01:35.943Z,14.60
2022-10-25T10:02:36.073Z,13.20
2022-10-25T10:03:35.880Z,15.50
2022-10-25T10:04:35.875Z,14.90
2022-10-25T10:05:35.834Z,14.70
2022-10-25T10:06:35.894Z,15.60
2022-10-25T10:07:35.831Z,15.50
2022-10-25T10:08:35.922Z,15.20
2022-10-25T10:09:35.799Z,15.70
2022-10-25T10:10:35.798Z,15.70
2022-10-25T10:11:35.766Z,14.70
2022-10-25T10:12:35.771Z,16.60
2022-10-25T10:13:35.737Z,14.80
2022-10-25T10:14:35.747Z,15.10
2022-10-25T10:15:35.723Z,15.50
2022-10-25T10:16:35.698Z,14.10
2022-10-25T10:17:35.699Z,15.30
2022-10-25T10:18:35.686Z,16.30
2022-10-25T10:19:35.658Z,13.50
2022-10-25T10:20:35.782Z,15.20
2022-10-25T10:21:35.648Z,16.20
2022-10-25T10:22:35.725Z,15.40
2022-10-25T10:23:35.629Z,15.60
2022-10-25T10:24:35.592Z,15.30
2022-10-25T10:25:35.593Z,13.90
2022-10-25T10:26:35.702Z,14.00
2022-10-25T10:27:35.568Z,14.60
2022-10-25T10:28:35.556Z,15.80
2022-10-25T10:29:35.523Z,14.70
2022-10-25T10:30:35.513Z,15.70
2022-10-25T10:31:35.507Z,15.40
2022-10-25T10:32:35.579Z,15.20
2022-10-25T10:33:35.488Z,15.80
2022-10-25T10:34:35.479Z,16.50
2022-10-25T10:35:35.445Z,15.70
2022-10-25T10:36:35.438Z,15.20
2022-10-25T10:37:35.440Z,16.80
2022-10-25T10:38:35.560Z,16.90
2022-10-25T10:39:35.396Z,17.30
2022-10-25T10:40:35.410Z,16.20
2022-10-25T10:41:35.367Z,15.90
2022-10-25T10:42:35.358Z,16.00
2022-10-25T10:43:35.352Z,15.20
2022-10-25T10:44:35.460Z,14.40
2022-10-25T10:45:35.332Z,15.60
2022-10-25T10:46:35.329Z,15.30
2022-10-25T10:47:35.290Z,14.90
2022-10-25T10:48:40.330Z,14.80
2022-10-25T10:49:36.270Z,14.50
2022-10-25T10:50:35.361Z,13.60
2022-10-25T10:51:50.680Z,13.80
2022-10-25T10:52:36.244Z,16.70
2022-10-25T10:53:35.212Z,16.60
2022-10-25T10:54:35.201Z,15.80
2022-10-25T10:55:35.195Z,14.80
2022-10-25T10:56:35.291Z,15.70
2022-10-25T10:57:35.167Z,17.30
2022-10-25T10:58:35.169Z,16.30
2022-10-25T10:59:35.125Z,16.30
2022-10-25T11:00:35.161Z,14.80
2022-10-25T11:01:35.277Z,14.70
2022-10-25T11:02:35.227Z,14.60
2022-10-25T11:03:35.098Z,12.20
2022-10-25T11:04:35.065Z,12.90
2022-10-25T11:05:35.102Z,12.70
2022-10-25T11:06:35.058Z,13.10
2022-10-25T11:07:35.016Z,13.20
2022-10-25T11:08:35.146Z,12.50
2022-10-25T11:09:35.010Z,13.00
2022-10-25T11:10:35.006Z,12.30
2022-10-25T11:11:34.967Z,13.50
2022-10-25T11:12:40.225Z,11.90
2022-10-25T11:13:35.968Z,11.40
2022-10-25T11:14:34.928Z,11.20
2022-10-25T11:15:34.945Z,11.90
2022-10-25T11:16:34.900Z,12.50
2022-10-25T11:17:34.903Z,11.10
2022-10-25T11:18:34.893Z,11.00
2022-10-25T11:19:34.906Z,10.10
2022-10-25T11:20:34.864Z,10.70
2022-10-25T11:21:34.832Z,10.40
2022-10-25T11:22:34.858Z,10.60
2022-10-25T11:23:34.815Z,11.80
2022-10-25T11:24:34.805Z,12.10
2022-10-25T11:25:34.812Z,11.90
2022-10-25T11:26:34.764Z,12.20
2022-10-25T11:27:35.089Z,12.40
2022-10-25T11:28:34.734Z,13.20
2022-10-25T11:29:34.745Z,13.00
2022-10-25T11:30:34.727Z,14.40
2022-10-25T11:31:34.724Z,12.30
2022-10-25T11:33:34.676Z,13.80
2022-10-25T11:34:34.658Z,12.60
2022-10-25T11:35:34.667Z,12.20
2022-10-25T11:36:34.648Z,14.90
2022-10-25T11:37:34.749Z,12.70
2022-10-25T11:38:34.632Z,11.60
2022-10-25T11:39:34.599Z,11.30
2022-10-25T11:40:34.589Z,11.60
2022-10-25T11:41:34.601Z,11.40
2022-10-25T11:42:34.569Z,10.70
2022-10-25T11:43:34.651Z,11.10
2022-10-25T11:44:34.550Z,11.20
2022-10-25T11:45:34.518Z,11.10
2022-10-25T11:46:34.510Z,10.20
2022-10-25T11:47:34.503Z,10.80
2022-10-25T11:48:34.472Z,9.90
2022-10-25T11:49:34.614Z,10.30
2022-10-25T11:50:34.475Z,11.00
2022-10-25T11:51:34.445Z,9.20
2022-10-25T11:52:34.440Z,8.90
2022-10-25T11:53:34.403Z,9.00
2022-10-25T11:54:34.402Z,8.50
2022-10-25T11:55:34.417Z,8.40
2022-10-25T11:56:34.376Z,8.40
2022-10-25T11:57:34.355Z,9.10
2022-10-25T11:58:34.334Z,8.80
2022-10-25T11:59:34.339Z,8.00
2022-10-25T12:00:34.309Z,7.40
2022-10-25T12:01:34.474Z,7.90
2022-10-25T12:02:34.339Z,8.60
2022-10-25T12:03:34.316Z,7.60
2022-10-25T12:04:37.101Z,7.90
2022-10-25T12:05:34.255Z,7.20
2022-10-25T12:06:34.227Z,7.20
2022-10-25T12:07:34.339Z,7.60
2022-10-25T12:08:34.197Z,7.00
2022-10-25T12:09:34.202Z,7.10
2022-10-25T12:10:34.226Z,7.10
2022-10-25T12:11:34.161Z,6.70
2022-10-25T12:12:34.152Z,6.50
2022-10-25T12:13:34.263Z,6.80
2022-10-25T12:14:34.134Z,6.70
2022-10-25T12:15:34.112Z,7.00
2022-10-25T12:16:34.102Z,6.80
2022-10-25T12:17:34.082Z,6.50
2022-10-25T12:18:34.061Z,5.90
2022-10-25T12:19:34.103Z,6.10
2022-10-25T12:21:34.044Z,6.00
2022-10-25T12:22:34.026Z,6.20
2022-10-25T12:23:34.003Z,6.00
2022-10-25T12:24:34.000Z,6.10
2022-10-25T12:25:34.003Z,6.00
2022-10-25T12:26:33.955Z,6.40
2022-10-25T12:27:33.998Z,5.10
2022-10-25T12:28:33.936Z,5.80
2022-10-25T12:29:33.938Z,5.40
2022-10-25T12:30:33.920Z,5.20
2022-10-25T12:31:33.927Z,5.20
2022-10-25T12:32:33.889Z,5.20
2022-10-25T12:33:33.874Z,4.40
2022-10-25T12:34:33.847Z,5.20
2022-10-25T12:35:33.851Z,4.70
2022-10-25T12:36:33.818Z,4.90
2022-10-25T12:37:33.852Z,4.80
2022-10-25T12:38:33.799Z,5.30
2022-10-25T12:39:33.780Z,4.70
2022-10-25T12:40:34.623Z,4.30
2022-10-25T12:41:33.760Z,4.50
2022-10-25T12:42:33.740Z,4.60
2022-10-25T12:43:33.874Z,4.50
2022-10-25T12:44:33.724Z,5.00
2022-10-25T12:45:33.733Z,4.70
2022-10-25T12:46:33.681Z,4.70
2022-10-25T12:47:33.685Z,4.80
2022-10-25T12:48:33.654Z,4.70
2022-10-25T12:49:33.785Z,4.90
2022-10-25T12:50:33.656Z,4.30
2022-10-25T12:51:33.623Z,4.70
2022-10-25T12:52:33.614Z,4.70
2022-10-25T12:53:33.592Z,4.80
2022-10-25T12:54:33.574Z,4.70
2022-10-25T12:55:33.613Z,5.10
2022-10-25T12:56:33.545Z,5.00
2022-10-25T12:57:33.558Z,5.20